createdAt,value
2022-08-08T00:02:31.372Z,87810.16
2022-08-08T00:05:18.610Z,87815.06
2022-08-08T00:08:43.482Z,87810.50
2022-08-08T00:11:46.950Z,87811.28
2022-08-08T00:15:08.876Z,87812.06
2022-08-08T00:18:03.229Z,87804.81
2022-08-08T00:20:55.941Z,87811.69
2022-08-08T00:23:47.735Z,87811.28
2022-08-08T00:26:36.354Z,87811.69
2022-08-08T00:29:15.105Z,87810.16
2022-08-08T00:32:28.931Z,87807.84
2022-08-08T00:34:55.991Z,87804.06
2022-08-08T00:37:47.211Z,87796.81
2022-08-08T00:41:12.842Z,87807.50
2022-08-08T00:44:01.243Z,87805.59
2022-08-08T00:46:57.783Z,87794.59
2022-08-08T00:49:58.741Z,87791.22
2022-08-08T00:53:20.116Z,87793.88
2022-08-08T00:56:30.166Z,87794.28
2022-08-08T00:59:46.416Z,87793.91
2022-08-08T01:03:57.572Z,87792.41
2022-08-08T01:06:17.280Z,87788.28
2022-08-08T01:09:36.179Z,87779.94
2022-08-08T01:12:33.016Z,87787.53
2022-08-08T01:15:43.718Z,87782.59
2022-08-08T01:18:54.226Z,87783.75
2022-08-08T01:22:07.230Z,87778.84
2022-08-08T01:25:08.547Z,87779.97
2022-08-08T01:28:17.937Z,87779.22
2022-08-08T01:32:15.282Z,87778.47
2022-08-08T01:34:49.568Z,87777.38
2022-08-08T01:37:56.965Z,87779.66
2022-08-08T01:40:54.551Z,87773.22
2022-08-08T01:43:50.590Z,87778.94
2022-08-08T01:46:52.914Z,87764.88
2022-08-08T01:50:17.122Z,87775.56
2022-08-08T01:55:17.849Z,87777.50
2022-08-08T01:57:17.242Z,87781.41
2022-08-08T02:00:27.898Z,87773.81
2022-08-08T02:03:55.004Z,87779.13
2022-08-08T02:06:36.674Z,87776.88
2022-08-08T02:10:02.305Z,87781.41
2022-08-08T02:12:26.127Z,87775.72
2022-08-08T02:15:27.694Z,87781.78
2022-08-08T02:18:38.736Z,87781.41
2022-08-08T02:21:20.227Z,87789.41
2022-08-08T02:24:09.691Z,87779.53
2022-08-08T02:27:17.856Z,87777.22
2022-08-08T02:30:02.831Z,87779.94
2022-08-08T02:33:11.005Z,87776.88
2022-08-08T02:36:24.596Z,87781.84
2022-08-08T02:39:02.679Z,87772.75
2022-08-08T02:42:38.227Z,87773.88
2022-08-08T02:46:02.081Z,87767.41
2022-08-08T02:49:03.137Z,87770.84
2022-08-08T02:52:32.583Z,87772.75
2022-08-08T02:55:10.489Z,87774.69
2022-08-08T02:58:36.916Z,87773.53
2022-08-08T03:01:57.867Z,87762.94
2022-08-08T03:05:11.944Z,87771.28
2022-08-08T03:08:14.443Z,87768.66
2022-08-08T03:11:47.961Z,87770.19
2022-08-08T03:15:56.773Z,87766.78
2022-08-08T03:18:00.153Z,87774.75
2022-08-08T03:20:43.507Z,87774.00
2022-08-08T03:23:17.570Z,87779.31
2022-08-08T03:25:50.245Z,87777.41
2022-08-08T03:28:41.493Z,87762.22
2022-08-08T03:31:24.906Z,87768.31
2022-08-08T03:34:00.398Z,87759.97
2022-08-08T03:36:30.647Z,87757.69
2022-08-08T03:39:14.719Z,87760.34
2022-08-08T03:42:26.798Z,87769.13
2022-08-08T03:44:35.189Z,87775.56
2022-08-08T03:47:19.259Z,87768.00
2022-08-08T03:50:00.994Z,87769.94
2022-08-08T03:52:31.897Z,87764.63
2022-08-08T03:55:11.155Z,87768.84
2022-08-08T03:58:30.484Z,87774.56
2022-08-08T04:01:02.872Z,87781.81
2022-08-08T04:03:58.780Z,87781.06
2022-08-08T04:06:23.732Z,87786.44
2022-08-08T04:08:57.318Z,87781.91
2022-08-08T04:11:25.454Z,87786.47
2022-08-08T04:14:03.842Z,87782.28
2022-08-08T04:16:41.429Z,87778.88
2022-08-08T04:19:24.939Z,87781.91
2022-08-08T04:21:54.224Z,87783.44
2022-08-08T04:24:30.519Z,87781.53
2022-08-08T04:27:01.626Z,87790.28
2022-08-08T04:29:37.100Z,87790.63
2022-08-08T04:32:07.095Z,87787.22
2022-08-08T04:34:49.522Z,87785.31
2022-08-08T04:37:31.969Z,87788.69
2022-08-08T04:40:07.130Z,87786.78
2022-08-08T04:42:37.223Z,87790.22
2022-08-08T04:45:06.411Z,87787.50
2022-08-08T04:47:36.731Z,87790.16
2022-08-08T04:50:24.121Z,87786.38
2022-08-08T04:53:01.122Z,87792.81
2022-08-08T04:55:47.078Z,87786.75
2022-08-08T04:58:22.642Z,87798.50
2022-08-08T05:00:51.529Z,87792.41
2022-08-08T05:04:10.053Z,87799.63
2022-08-08T05:06:13.399Z,87799.97
2022-08-08T05:08:51.631Z,87796.59
2022-08-08T05:11:23.826Z,87798.44
2022-08-08T05:13:57.686Z,87801.13
2022-08-08T05:16:52.196Z,87803.41
2022-08-08T05:20:04.115Z,87797.69
2022-08-08T05:22:10.516Z,87797.69
2022-08-08T05:24:38.899Z,87808.28
2022-08-08T05:27:07.920Z,87801.81
2022-08-08T05:29:35.792Z,87802.94
2022-08-08T05:32:08.267Z,87808.63
2022-08-08T05:34:49.486Z,87807.84
2022-08-08T05:37:28.439Z,87810.91
2022-08-08T05:40:16.964Z,87817.34
2022-08-08T05:42:51.447Z,87816.56
2022-08-08T05:45:30.721Z,87815.44
2022-08-08T05:48:08.665Z,87827.16
2022-08-08T05:50:38.501Z,87824.50
2022-08-08T05:53:53.584Z,87825.25
2022-08-08T05:56:10.376Z,87833.59
2022-08-08T05:58:57.117Z,87828.63
2022-08-08T06:01:55.714Z,87832.41
2022-08-08T06:04:24.965Z,87829.31
2022-08-08T06:07:01.576Z,87831.53
2022-08-08T06:09:57.975Z,87833.41
2022-08-08T06:12:30.341Z,87834.13
2022-08-08T06:15:03.997Z,87842.81
2022-08-08T06:18:18.128Z,87829.91
2022-08-08T06:20:27.933Z,87840.16
2022-08-08T06:22:56.364Z,87841.25
2022-08-08T06:26:33.880Z,87836.66
2022-08-08T06:28:29.243Z,87830.53
2022-08-08T06:31:01.802Z,87832.75
2022-08-08T06:34:25.628Z,87833.88
2022-08-08T06:36:53.802Z,87839.47
2022-08-08T06:39:22.780Z,87837.91
2022-08-08T06:41:56.615Z,87838.97
2022-08-08T06:44:26.700Z,87838.47
2022-08-08T06:46:58.815Z,87841.84
2022-08-08T06:49:55.610Z,87845.56
2022-08-08T06:52:17.305Z,87843.19
2022-08-08T06:54:49.009Z,87844.63
2022-08-08T06:57:16.698Z,87844.91
2022-08-08T07:00:10.108Z,87847.88
2022-08-08T07:02:36.350Z,87841.28
2022-08-08T07:05:12.185Z,87838.19
2022-08-08T07:08:12.373Z,87835.81
2022-08-08T07:10:51.157Z,87840.59
2022-08-08T07:13:20.136Z,87839.69
2022-08-08T07:16:27.392Z,87838.91
2022-08-08T07:19:36.456Z,87845.69
2022-08-08T07:22:11.920Z,87843.59
2022-08-08T07:24:58.793Z,87843.47
2022-08-08T07:27:35.516Z,87841.09
2022-08-08T07:30:16.803Z,87840.63
2022-08-08T07:32:49.296Z,87834.88
2022-08-08T07:35:17.919Z,87848.13
2022-08-08T07:37:56.321Z,87845.47
2022-08-08T07:40:33.892Z,87842.03
2022-08-08T07:43:09.706Z,87842.72
2022-08-08T07:46:05.714Z,87843.81
2022-08-08T07:48:29.970Z,87844.97
2022-08-08T07:51:00.235Z,87842.28
2022-08-08T07:54:01.334Z,87849.09
2022-08-08T07:56:37.122Z,87849.84
2022-08-08T07:59:16.284Z,87849.81
2022-08-08T08:02:35.398Z,87847.75
2022-08-08T08:04:55.737Z,87836.47
2022-08-08T08:07:37.778Z,87841.16
2022-08-08T08:10:12.259Z,87840.16
2022-08-08T08:12:50.947Z,87836.91
2022-08-08T08:15:23.590Z,87845.25
2022-08-08T08:17:55.942Z,87837.91
2022-08-08T08:20:30.306Z,87846.22
2022-08-08T08:22:57.921Z,87842.38
2022-08-08T08:25:43.808Z,87848.00
2022-08-08T08:28:16.904Z,87843.81
2022-08-08T08:30:49.415Z,87842.38
2022-08-08T08:33:17.493Z,87846.44
2022-08-08T08:36:19.010Z,87843.66
2022-08-08T08:38:35.696Z,87837.50
2022-08-08T08:41:17.233Z,87847.72
2022-08-08T08:43:45.797Z,87843.03
2022-08-08T08:46:17.622Z,87843.03
2022-08-08T08:48:49.429Z,87848.66
2022-08-08T08:51:18.952Z,87849.41
2022-08-08T08:53:56.562Z,87852.44
2022-08-08T08:56:28.342Z,87845.84
2022-08-08T08:58:57.959Z,87845.44
2022-08-08T09:01:33.167Z,87846.09
2022-08-08T09:04:31.727Z,87845.97
2022-08-08T09:07:02.323Z,87848.16
2022-08-08T09:09:47.675Z,87836.91
2022-08-08T09:12:19.898Z,87831.78
2022-08-08T09:14:51.619Z,87838.91
2022-08-08T09:17:22.462Z,87831.06
2022-08-08T09:21:59.117Z,87834.34
2022-08-08T09:22:48.079Z,87828.50
2022-08-08T09:25:16.952Z,87832.16
2022-08-08T09:27:58.192Z,87837.44
2022-08-08T09:30:27.716Z,87832.09
2022-08-08T09:33:12.241Z,87833.19
2022-08-08T09:35:50.024Z,87829.66
2022-08-08T09:38:54.352Z,87830.06
2022-08-08T09:41:54.900Z,87830.25
2022-08-08T09:44:49.740Z,87821.88
2022-08-08T09:47:26.647Z,87833.00
2022-08-08T09:50:21.123Z,87827.78
2022-08-08T09:52:56.700Z,87823.78
2022-08-08T09:55:51.802Z,87827.59
2022-08-08T09:58:25.926Z,87824.56
2022-08-08T10:01:01.256Z,87809.91
2022-08-08T10:03:39.612Z,87819.16
2022-08-08T10:06:19.630Z,87822.06
2022-08-08T10:08:56.652Z,87820.56
2022-08-08T10:12:26.221Z,87817.66
2022-08-08T10:14:28.636Z,87818.31
2022-08-08T10:16:59.855Z,87820.00
2022-08-08T10:19:46.112Z,87816.91
2022-08-08T10:22:28.659Z,87831.13
2022-08-08T10:25:06.409Z,87820.56
2022-08-08T10:27:43.871Z,87826.59
2022-08-08T10:30:16.376Z,87824.84
2022-08-08T10:33:01.656Z,87823.81
2022-08-08T10:36:08.895Z,87817.47
2022-08-08T10:38:20.863Z,87821.78
2022-08-08T10:40:53.318Z,87826.16
2022-08-08T10:43:22.252Z,87822.06
2022-08-08T10:45:56.802Z,87824.69
2022-08-08T10:48:57.850Z,87824.31
2022-08-08T10:51:31.569Z,87824.91
2022-08-08T10:54:08.270Z,87824.06
2022-08-08T10:56:43.337Z,87826.63
2022-08-08T10:59:14.629Z,87831.34
2022-08-08T11:01:49.386Z,87827.69
2022-08-08T11:04:29.396Z,87831.31
2022-08-08T11:07:07.265Z,87839.34
2022-08-08T11:09:35.237Z,87838.13
2022-08-08T11:12:12.925Z,87838.84
2022-08-08T11:14:59.718Z,87848.16
2022-08-08T11:18:00.017Z,87850.81
2022-08-08T11:20:28.778Z,87846.97
2022-08-08T11:23:05.304Z,87853.50
2022-08-08T11:34:01.601Z,87861.66
2022-08-08T11:40:31.753Z,87857.72
2022-08-08T11:43:03.859Z,87856.13
2022-08-08T11:45:39.796Z,87850.97
2022-08-08T11:48:20.459Z,87851.88
2022-08-08T11:50:52.617Z,87854.72
2022-08-08T11:53:21.296Z,87861.75
2022-08-08T11:55:52.850Z,87858.03
2022-08-08T11:58:21.816Z,87862.34
2022-08-08T12:00:53.512Z,87857.47
2022-08-08T12:03:31.137Z,87858.19
2022-08-08T12:05:59.346Z,87865.22
2022-08-08T12:08:35.946Z,87860.84
2022-08-08T12:11:18.345Z,87863.22
2022-08-08T12:14:04.914Z,87860.22
2022-08-08T12:16:42.025Z,87853.63
2022-08-08T12:19:14.079Z,87854.13
2022-08-08T12:22:00.553Z,87856.28
2022-08-08T12:24:30.058Z,87855.75
2022-08-08T12:26:58.660Z,87857.94
2022-08-08T12:29:41.375Z,87858.16
2022-08-08T12:32:19.711Z,87860.84
2022-08-08T12:35:13.687Z,87864.72
2022-08-08T12:38:02.205Z,87864.28
2022-08-08T12:40:56.459Z,87865.56
2022-08-08T12:43:43.355Z,87869.50
2022-08-08T12:46:19.078Z,87863.16
2022-08-08T12:49:42.995Z,87865.59
2022-08-08T12:52:02.247Z,87864.53
2022-08-08T12:54:40.783Z,87861.38
2022-08-08T12:57:25.993Z,87864.38
2022-08-08T13:00:04.768Z,87873.66
2022-08-08T13:02:42.251Z,87875.25
2022-08-08T13:05:26.680Z,87874.69
2022-08-08T13:08:19.616Z,87877.38
2022-08-08T13:10:58.046Z,87866.66
2022-08-08T13:13:35.065Z,87880.81
2022-08-08T13:16:25.882Z,87881.84
2022-08-08T13:19:05.510Z,87873.63
2022-08-08T13:21:53.015Z,87884.56
2022-08-08T13:24:40.852Z,87876.88
2022-08-08T13:27:18.054Z,87879.47
2022-08-08T13:30:05.649Z,87877.94
2022-08-08T13:32:39.847Z,87880.56
2022-08-08T13:35:24.253Z,87873.59
2022-08-08T13:38:06.194Z,87871.84
2022-08-08T13:40:35.880Z,87873.28
2022-08-08T13:43:08.698Z,87874.00
2022-08-08T13:45:36.008Z,87868.31
2022-08-08T13:48:12.729Z,87869.41
2022-08-08T13:50:52.512Z,87861.59
2022-08-08T13:53:31.394Z,87864.06
2022-08-08T13:56:04.406Z,87859.66
2022-08-08T13:58:31.725Z,87860.56
2022-08-08T14:01:23.111Z,87857.16
2022-08-08T14:04:00.959Z,87854.31
2022-08-08T14:06:32.999Z,87852.06
2022-08-08T14:09:24.278Z,87858.34
2022-08-08T14:11:49.576Z,87854.34
2022-08-08T14:14:21.070Z,87851.84
2022-08-08T14:16:53.733Z,87850.72
2022-08-08T14:19:55.608Z,87846.25
2022-08-08T14:22:25.674Z,87854.59
2022-08-08T14:24:58.867Z,87841.22
2022-08-08T14:27:40.405Z,87844.66
2022-08-08T14:30:18.490Z,87838.72
2022-08-08T14:32:52.834Z,87838.91
2022-08-08T14:35:35.083Z,87832.59
2022-08-08T14:38:33.469Z,87834.44
2022-08-08T14:40:59.006Z,87831.91
2022-08-08T14:44:02.885Z,87829.53
2022-08-08T14:46:30.963Z,87831.63
2022-08-08T14:49:20.614Z,87828.44
2022-08-08T14:52:08.850Z,87832.81
2022-08-08T14:54:49.637Z,87831.03
2022-08-08T14:57:17.590Z,87827.41
2022-08-08T14:59:51.495Z,87832.78
2022-08-08T15:02:25.262Z,87831.56
2022-08-08T15:04:53.240Z,87830.63
2022-08-08T15:07:24.293Z,87829.84
2022-08-08T15:10:09.275Z,87829.94
2022-08-08T15:12:38.601Z,87830.84
2022-08-08T15:15:09.508Z,87836.91
2022-08-08T15:17:45.762Z,87842.06
2022-08-08T15:20:16.110Z,87842.84
2022-08-08T15:22:45.949Z,87835.03
2022-08-08T15:25:17.531Z,87843.25
2022-08-08T15:28:03.873Z,87839.91
2022-08-08T15:30:35.461Z,87847.16
2022-08-08T15:33:14.300Z,87849.19
2022-08-08T15:35:51.581Z,87844.94
2022-08-08T15:38:18.804Z,87843.44
2022-08-08T15:40:46.476Z,87846.13
2022-08-08T15:43:18.604Z,87844.72
2022-08-08T15:46:02.737Z,87843.66
2022-08-08T15:49:45.481Z,87854.94
2022-08-08T15:53:11.114Z,87851.06
2022-08-08T15:55:43.702Z,87852.47
2022-08-08T15:58:15.978Z,87859.31
2022-08-08T16:00:50.298Z,87848.25
2022-08-08T16:03:18.239Z,87851.84
2022-08-08T16:06:01.134Z,87848.78
2022-08-08T16:08:29.737Z,87853.22
2022-08-08T16:13:10.579Z,87854.63
2022-08-08T16:13:46.127Z,87847.56
2022-08-08T16:16:18.121Z,87854.31
2022-08-08T16:18:57.188Z,87850.09
2022-08-08T16:21:29.005Z,87850.66
2022-08-08T16:24:17.176Z,87853.09
2022-08-08T16:26:44.619Z,87866.84
2022-08-08T16:29:36.987Z,87862.75
2022-08-08T16:32:11.191Z,87860.28
2022-08-08T16:34:41.521Z,87867.59
2022-08-08T16:37:08.736Z,87868.97
2022-08-08T16:40:02.528Z,87874.09
2022-08-08T16:42:30.592Z,87867.34
2022-08-08T16:44:57.987Z,87871.94
2022-08-08T16:47:40.548Z,87878.19
2022-08-08T16:50:15.958Z,87866.63
2022-08-08T16:55:03.766Z,87873.53
2022-08-08T16:55:52.213Z,87873.53
2022-08-08T16:58:25.614Z,87877.81
2022-08-08T17:00:58.121Z,87878.25
2022-08-08T17:03:57.971Z,87882.84
2022-08-08T17:06:36.128Z,87886.69
2022-08-08T17:09:02.531Z,87882.97
2022-08-08T17:11:38.884Z,87887.13
2022-08-08T17:14:19.098Z,87889.50
2022-08-08T17:16:57.665Z,87899.72
2022-08-08T17:19:29.050Z,87896.72
2022-08-08T17:22:01.445Z,87895.38
2022-08-08T17:24:31.028Z,87898.13
2022-08-08T17:27:00.275Z,87893.28
2022-08-08T17:29:33.624Z,87905.28
2022-08-08T17:32:04.431Z,87898.84
2022-08-08T17:35:56.220Z,87908.16
2022-08-08T17:39:05.102Z,87907.91
2022-08-08T17:41:58.553Z,87902.63
2022-08-08T17:44:30.381Z,87911.13
2022-08-08T17:48:29.522Z,87918.25
2022-08-08T17:50:58.531Z,87921.59
2022-08-08T17:54:28.906Z,87927.81
2022-08-08T17:56:56.751Z,87937.13
2022-08-08T17:59:30.447Z,87934.09
2022-08-08T18:02:05.384Z,87936.53
2022-08-08T18:04:49.430Z,87948.09
2022-08-08T18:08:01.164Z,87938.56
2022-08-08T18:10:06.989Z,87947.00
2022-08-08T18:12:34.936Z,87943.22
2022-08-08T18:15:07.345Z,87948.34
2022-08-08T18:18:09.623Z,87946.81
2022-08-08T18:20:43.588Z,87953.75
2022-08-08T18:23:27.958Z,87953.16
2022-08-08T18:26:01.474Z,87957.09
2022-08-08T18:28:54.138Z,87959.50
2022-08-08T18:31:22.717Z,87955.81
2022-08-08T18:34:12.268Z,87969.97
2022-08-08T18:36:38.419Z,87978.41
2022-08-08T18:39:06.435Z,87971.94
2022-08-08T18:41:51.170Z,87984.19
2022-08-08T18:44:21.023Z,87980.78
2022-08-08T18:46:57.955Z,87987.41
2022-08-08T18:49:57.263Z,87985.09
2022-08-08T18:52:25.799Z,87992.81
2022-08-08T18:54:59.351Z,87990.13
2022-08-08T18:57:44.725Z,87996.66
2022-08-08T19:00:27.055Z,87997.81
2022-08-08T19:02:55.996Z,87997.91
2022-08-08T19:05:32.499Z,88004.06
2022-08-08T19:08:25.198Z,88004.06
2022-08-08T19:11:01.806Z,88003.41
2022-08-08T19:13:52.363Z,88003.88
2022-08-08T19:16:20.329Z,88002.09
2022-08-08T19:19:00.226Z,88002.88
2022-08-08T19:21:33.531Z,88010.16
2022-08-08T19:24:42.050Z,88010.56
2022-08-08T19:27:08.803Z,88009.47
2022-08-08T19:30:23.979Z,88015.31
2022-08-08T19:32:52.416Z,88015.31
2022-08-08T19:35:25.702Z,88016.81
2022-08-08T19:38:10.082Z,88022.97
2022-08-08T19:40:47.306Z,88031.41
2022-08-08T19:43:14.517Z,88027.28
2022-08-08T19:45:58.829Z,88026.53
2022-08-08T19:48:29.107Z,88031.28
2022-08-08T19:51:01.178Z,88026.31
2022-08-08T19:53:52.788Z,88033.31
2022-08-08T19:56:39.229Z,88033.78
2022-08-08T19:59:04.788Z,88031.09
2022-08-08T20:02:00.963Z,88032.31
2022-08-08T20:04:23.672Z,88027.09
2022-08-08T20:06:51.805Z,88033.63
2022-08-08T20:09:23.017Z,88032.84
2022-08-08T20:11:52.874Z,88029.16
2022-08-08T20:14:35.749Z,88027.28
2022-08-08T20:17:04.764Z,88027.69
2022-08-08T20:19:34.760Z,88029.66
2022-08-08T20:22:20.917Z,88032.44
2022-08-08T20:24:53.919Z,88030.69
2022-08-08T20:27:21.358Z,88035.28
2022-08-08T20:29:55.689Z,88036.88
2022-08-08T20:32:29.562Z,88051.91
2022-08-08T20:35:01.168Z,88052.34
2022-08-08T20:37:46.615Z,88047.78
2022-08-08T20:40:17.985Z,88054.75
2022-08-08T20:43:01.342Z,88062.41
2022-08-08T20:45:54.973Z,88059.78
2022-08-08T20:48:21.488Z,88048.44
2022-08-08T20:50:53.528Z,88051.94
2022-08-08T20:53:58.014Z,88050.06
2022-08-08T20:56:10.270Z,88053.13
2022-08-08T20:58:40.706Z,88045.16
2022-08-08T21:01:19.970Z,88055.50
2022-08-08T21:04:00.217Z,88053.59
2022-08-08T21:06:52.671Z,88055.13
2022-08-08T21:09:16.478Z,88050.66
2022-08-08T21:11:51.649Z,88048.03
2022-08-08T21:14:30.253Z,88047.38
2022-08-08T21:17:03.149Z,88047.03
2022-08-08T21:19:45.098Z,88056.59
2022-08-08T21:22:15.313Z,88055.13
2022-08-08T21:24:52.925Z,88053.66
2022-08-08T21:28:05.858Z,88057.50
2022-08-08T21:30:18.749Z,88055.69
2022-08-08T21:32:52.271Z,88045.44
2022-08-08T21:36:13.654Z,88050.41
2022-08-08T21:38:16.055Z,88046.69
2022-08-08T21:40:56.373Z,88051.25
2022-08-08T21:43:33.374Z,88056.59
2022-08-08T21:48:05.361Z,88048.66
2022-08-08T21:48:55.502Z,88052.88
2022-08-08T21:54:18.597Z,88051.78
2022-08-08T21:54:36.378Z,88051.09
2022-08-08T21:57:03.723Z,88051.53
2022-08-08T22:00:02.599Z,88053.06
2022-08-08T22:02:19.233Z,88054.63
2022-08-08T22:04:58.961Z,88054.69
2022-08-08T22:07:34.634Z,88054.34
2022-08-08T22:10:18.261Z,88052.47
2022-08-08T22:13:17.197Z,88056.72
2022-08-08T22:15:58.355Z,88057.47
2022-08-08T22:18:30.668Z,88055.59
2022-08-08T22:21:14.648Z,88057.91
2022-08-08T22:23:51.276Z,88057.19
2022-08-08T22:26:30.975Z,88059.13
2022-08-08T22:29:14.347Z,88061.44
2022-08-08T22:32:01.734Z,88067.91
2022-08-08T22:34:39.613Z,88069.13
2022-08-08T22:37:28.238Z,88065.69
2022-08-08T22:40:00.992Z,88068.75
2022-08-08T22:42:31.913Z,88072.53
2022-08-08T22:45:12.145Z,88064.16
2022-08-08T22:47:47.190Z,88072.91
2022-08-08T22:50:27.317Z,88070.66
2022-08-08T22:54:28.049Z,88071.41
2022-08-08T22:55:58.415Z,88065.31
2022-08-08T22:58:33.089Z,88071.81
2022-08-08T23:01:30.292Z,88074.13
2022-08-08T23:03:56.296Z,88078.31
2022-08-08T23:06:25.554Z,88075.69
2022-08-08T23:08:58.818Z,88079.88
2022-08-08T23:12:28.790Z,88077.63
2022-08-08T23:14:20.844Z,88085.59
2022-08-08T23:16:54.755Z,88085.25
2022-08-08T23:19:31.101Z,88077.97
2022-08-08T23:22:05.838Z,88081.00
2022-08-08T23:24:41.234Z,88083.66
2022-08-08T23:27:37.595Z,88086.34
2022-08-08T23:29:59.550Z,88076.06
2022-08-08T23:32:26.788Z,88084.44
2022-08-08T23:34:59.007Z,88092.06
2022-08-08T23:37:54.016Z,88088.63
2022-08-08T23:40:16.203Z,88092.06
2022-08-08T23:42:45.274Z,88089.00
2022-08-08T23:45:13.830Z,88085.97
2022-08-08T23:49:03.887Z,88096.63
2022-08-08T23:50:31.259Z,88093.19
2022-08-08T23:53:03.471Z,88097.41
2022-08-08T23:55:33.383Z,88093.59
2022-08-08T23:58:09.722Z,88097.03
